Luthersburg, Pennsylvania
Current Conditions -  °F | °C
As of 7:53 AM on Thursday 18 Dec 2014 (Local Time) from KDUJ Reporting Station
Overcast Overcast  
Wind Chill: 17°   Ceiling: 1100
Heat Index: 26°   Visibility: 10mi
Dew Point: 22°   Wind: 9mph
Humidity: 84%   Direction: 290°WNW
Pressure: 30.08"   Gusts: 20mph
Location:  41.05°N, 78.72°W
Report Text: KDUJ 181253Z AUTO 29008G17KT 10SM OVC011 M03/M06 A3008 RMK AO2 SLP207 T10331056
Loading
Personal Weather Stations






























Interactive Weather Map New forecast layout! Learn more

10-Day Weather Forecast

Advertisements
Track Severe Weather on mobile